createdAt,value
2023-03-21T00:01:00.343Z,79.35
2023-03-21T00:03:30.728Z,70.15
2023-03-21T00:06:00.881Z,75.20
2023-03-21T00:08:31.359Z,70.55
2023-03-21T00:11:02.436Z,78.00
2023-03-21T00:13:34.357Z,75.15
2023-03-21T00:16:26.353Z,78.15
2023-03-21T00:19:04.800Z,89.95
2023-03-21T00:21:52.343Z,72.93
2023-03-21T00:24:30.182Z,81.88
2023-03-21T00:27:21.913Z,78.47
2023-03-21T00:29:51.907Z,77.22
2023-03-21T00:32:23.133Z,78.50
2023-03-21T00:35:08.107Z,70.75
2023-03-21T00:37:44.640Z,73.50
2023-03-21T00:40:25.682Z,77.97
2023-03-21T00:42:59.347Z,79.30
2023-03-21T00:45:30.160Z,66.80
2023-03-21T00:48:01.002Z,75.57
2023-03-21T00:50:32.071Z,79.88
2023-03-21T00:53:02.650Z,71.40
2023-03-21T00:55:33.568Z,82.78
2023-03-21T00:58:03.778Z,69.28
2023-03-21T01:00:40.847Z,74.47
2023-03-21T01:03:23.734Z,76.97
2023-03-21T01:06:07.512Z,75.90
2023-03-21T01:08:54.778Z,79.38
2023-03-21T01:11:27.206Z,79.45
2023-03-21T01:14:10.781Z,81.50
2023-03-21T01:16:48.340Z,75.63
2023-03-21T01:19:50.830Z,77.15
2023-03-21T01:22:10.750Z,76.93
2023-03-21T01:24:52.551Z,87.20
2023-03-21T01:27:25.302Z,71.63
2023-03-21T01:29:55.674Z,74.18
2023-03-21T01:32:26.533Z,69.55
2023-03-21T01:34:57.236Z,71.20
2023-03-21T01:37:28.194Z,71.65
2023-03-21T01:39:58.536Z,78.57
2023-03-21T01:42:28.928Z,71.00
2023-03-21T01:45:09.236Z,67.72
2023-03-21T01:47:45.481Z,71.57
2023-03-21T01:50:35.394Z,72.00
2023-03-21T01:53:24.823Z,66.85
2023-03-21T01:55:55.625Z,67.47
2023-03-21T01:58:45.559Z,74.50
2023-03-21T02:01:36.384Z,75.30
2023-03-21T02:04:10.668Z,65.03
2023-03-21T02:07:03.612Z,68.75
2023-03-21T02:09:41.863Z,67.78
2023-03-21T02:12:20.254Z,66.93
2023-03-21T02:14:52.664Z,76.75
2023-03-21T02:17:52.069Z,78.05
2023-03-21T02:20:51.149Z,64.22
2023-03-21T02:23:45.950Z,68.97
2023-03-21T02:26:42.010Z,72.88
2023-03-21T02:29:36.654Z,67.22
2023-03-21T02:32:37.102Z,64.13
2023-03-21T02:35:30.818Z,62.78
2023-03-21T02:38:20.882Z,70.25
2023-03-21T02:40:54.759Z,64.95
2023-03-21T02:43:30.725Z,67.60
2023-03-21T02:46:05.021Z,63.47
2023-03-21T02:48:50.580Z,66.70
2023-03-21T02:51:24.426Z,63.22
2023-03-21T02:54:26.102Z,62.63
2023-03-21T02:56:53.180Z,59.10
2023-03-21T02:59:25.308Z,62.92
2023-03-21T03:01:57.863Z,60.50
2023-03-21T03:04:29.152Z,61.75
2023-03-21T03:07:09.386Z,52.67
2023-03-21T03:09:59.114Z,59.75
2023-03-21T03:12:48.792Z,55.10
2023-03-21T03:15:40.162Z,58.40
2023-03-21T03:18:30.663Z,69.85
2023-03-21T03:21:20.266Z,59.08
2023-03-21T03:24:10.440Z,56.80
2023-03-21T03:26:50.886Z,55.30
2023-03-21T03:29:23.497Z,50.15
2023-03-21T03:31:58.816Z,46.60
2023-03-21T03:34:41.090Z,48.03
2023-03-21T03:37:16.527Z,45.08
2023-03-21T03:39:49.207Z,46.53
2023-03-21T03:42:39.573Z,46.03
2023-03-21T03:45:20.587Z,50.42
2023-03-21T03:47:57.749Z,48.08
2023-03-21T03:50:35.597Z,45.22
2023-03-21T03:53:25.999Z,43.95
2023-03-21T03:55:59.030Z,41.08
2023-03-21T03:58:43.043Z,48.38
2023-03-21T04:01:17.538Z,47.17
2023-03-21T04:04:00.990Z,40.00
2023-03-21T04:06:37.487Z,44.30
2023-03-21T04:09:20.613Z,40.85
2023-03-21T04:11:54.156Z,49.70
2023-03-21T04:14:25.605Z,46.40
2023-03-21T04:16:57.204Z,45.42
2023-03-21T04:19:28.756Z,46.58
2023-03-21T04:21:59.001Z,47.55
2023-03-21T04:24:29.975Z,38.78
2023-03-21T04:27:00.576Z,44.75
2023-03-21T04:29:40.795Z,47.78
2023-03-21T04:32:35.342Z,41.40
2023-03-21T04:35:12.900Z,45.63
2023-03-21T04:37:43.899Z,46.83
2023-03-21T04:40:19.379Z,51.55
2023-03-21T04:42:50.607Z,43.67
2023-03-21T04:45:21.094Z,45.03
2023-03-21T04:47:51.496Z,45.17
2023-03-21T04:50:22.459Z,42.85
2023-03-21T04:52:53.207Z,42.45
2023-03-21T04:55:23.304Z,44.65
2023-03-21T04:57:53.585Z,47.22
2023-03-21T05:00:25.236Z,41.45
2023-03-21T05:02:55.479Z,40.95
2023-03-21T05:05:25.424Z,38.90
2023-03-21T05:07:55.971Z,41.50
2023-03-21T05:10:26.413Z,40.25
2023-03-21T05:12:56.545Z,40.42
2023-03-21T05:15:27.045Z,60.13
2023-03-21T05:18:00.180Z,38.38
2023-03-21T05:20:30.623Z,36.45
2023-03-21T05:23:01.902Z,45.03
2023-03-21T05:25:40.084Z,36.50
2023-03-21T05:28:19.684Z,37.10
2023-03-21T05:30:51.644Z,34.42
2023-03-21T05:33:22.045Z,33.50
2023-03-21T05:35:55.611Z,33.08
2023-03-21T05:38:28.100Z,32.80
2023-03-21T05:40:59.238Z,35.78
2023-03-21T05:43:29.655Z,33.83
2023-03-21T05:46:00.703Z,33.92
2023-03-21T05:48:33.344Z,34.88
2023-03-21T05:51:15.305Z,34.42
2023-03-21T05:53:45.826Z,42.47
2023-03-21T05:56:18.004Z,42.70
2023-03-21T05:58:54.272Z,32.75
2023-03-21T06:01:26.136Z,34.42
2023-03-21T06:04:08.449Z,34.08
2023-03-21T06:06:39.325Z,31.92
2023-03-21T06:09:09.543Z,31.55
2023-03-21T06:11:49.935Z,36.22
2023-03-21T06:14:40.021Z,35.83
2023-03-21T06:17:20.868Z,39.40
2023-03-21T06:19:56.433Z,33.53
2023-03-21T06:22:31.857Z,34.13
2023-03-21T06:25:03.990Z,31.20
2023-03-21T06:27:34.443Z,32.15
2023-03-21T06:30:04.680Z,32.55
2023-03-21T06:32:40.104Z,31.83
2023-03-21T06:35:15.105Z,31.08
2023-03-21T06:37:47.578Z,31.48
2023-03-21T06:40:19.082Z,38.25
2023-03-21T06:42:49.662Z,31.40
2023-03-21T06:45:20.585Z,30.45
2023-03-21T06:47:51.189Z,36.97
2023-03-21T06:50:34.980Z,33.30
2023-03-21T06:53:05.926Z,29.55
2023-03-21T06:55:52.186Z,33.95
2023-03-21T06:58:23.569Z,32.53
2023-03-21T07:00:54.144Z,31.48
2023-03-21T07:03:25.108Z,28.20
2023-03-21T07:05:56.438Z,30.15
2023-03-21T07:08:27.240Z,30.55
2023-03-21T07:10:59.525Z,30.15
2023-03-21T07:13:29.760Z,31.08
2023-03-21T07:16:05.952Z,31.70
2023-03-21T07:18:36.303Z,28.50
2023-03-21T07:21:07.468Z,32.13
2023-03-21T07:23:39.814Z,29.27
2023-03-21T07:26:10.153Z,29.58
2023-03-21T07:28:41.933Z,31.98
2023-03-21T07:31:16.076Z,36.88
2023-03-21T07:33:46.348Z,34.13
2023-03-21T07:36:17.861Z,28.55
2023-03-21T07:38:48.892Z,28.50
2023-03-21T07:41:24.114Z,29.75
2023-03-21T07:43:54.558Z,28.85
2023-03-21T07:46:24.809Z,37.30
2023-03-21T07:48:54.825Z,34.15
2023-03-21T07:51:24.989Z,27.52
2023-03-21T07:53:55.347Z,30.27
2023-03-21T07:56:25.491Z,26.08
2023-03-21T07:58:55.678Z,28.35
2023-03-21T08:01:26.354Z,30.42
2023-03-21T08:03:56.499Z,30.17
2023-03-21T08:06:30.859Z,32.22
2023-03-21T08:09:01.400Z,29.08
2023-03-21T08:11:34.941Z,27.65
2023-03-21T08:14:05.868Z,27.20
2023-03-21T08:16:36.160Z,31.15
2023-03-21T08:19:06.711Z,28.60
2023-03-21T08:21:36.940Z,33.75
2023-03-21T08:24:08.675Z,27.30
2023-03-21T08:26:39.795Z,26.85
2023-03-21T08:29:10.465Z,30.23
2023-03-21T08:31:42.996Z,26.02
2023-03-21T08:34:15.212Z,28.58
2023-03-21T08:36:45.369Z,31.15
2023-03-21T08:39:15.698Z,38.15
2023-03-21T08:41:46.102Z,31.00
2023-03-21T08:44:18.448Z,30.05
2023-03-21T08:46:48.742Z,29.17
2023-03-21T08:49:19.184Z,32.60
2023-03-21T08:51:49.412Z,27.27
2023-03-21T08:54:22.218Z,27.15
2023-03-21T08:56:52.703Z,31.10
2023-03-21T08:59:23.226Z,32.03
2023-03-21T09:01:53.810Z,27.67
2023-03-21T09:04:27.479Z,28.08
2023-03-21T09:06:58.092Z,32.60
2023-03-21T09:09:29.312Z,30.58
2023-03-21T09:11:59.914Z,27.42
2023-03-21T09:14:30.118Z,31.08
2023-03-21T09:17:00.585Z,28.13
2023-03-21T09:19:31.561Z,29.38
2023-03-21T09:22:01.807Z,30.17
2023-03-21T09:24:32.784Z,26.77
2023-03-21T09:27:03.641Z,31.83
2023-03-21T09:29:34.057Z,26.45
2023-03-21T09:32:05.696Z,27.17
2023-03-21T09:34:36.071Z,28.95
2023-03-21T09:37:11.789Z,28.23
2023-03-21T09:39:44.452Z,30.45
2023-03-21T09:42:34.348Z,28.25
2023-03-21T09:45:19.068Z,25.65
2023-03-21T09:47:54.786Z,30.33
2023-03-21T09:50:35.016Z,26.35
2023-03-21T09:53:25.283Z,27.35
2023-03-21T09:55:58.919Z,34.75
2023-03-21T09:58:32.874Z,27.77
2023-03-21T10:01:12.689Z,26.73
2023-03-21T10:03:43.424Z,28.58
2023-03-21T10:06:17.250Z,30.17
2023-03-21T10:08:49.631Z,33.00
2023-03-21T10:11:23.260Z,31.92
2023-03-21T10:13:57.251Z,28.60
2023-03-21T10:16:37.792Z,30.83
2023-03-21T10:19:13.095Z,36.28
2023-03-21T10:22:00.162Z,29.70
2023-03-21T10:24:34.237Z,29.52
2023-03-21T10:27:06.046Z,32.90
2023-03-21T10:29:43.794Z,35.90
2023-03-21T10:32:16.412Z,33.47
2023-03-21T10:37:28.489Z,32.63
2023-03-21T10:39:58.769Z,34.65
2023-03-21T10:42:34.415Z,30.20
2023-03-21T10:45:04.893Z,29.65
2023-03-21T10:47:36.912Z,29.58
2023-03-21T10:50:11.842Z,32.80
2023-03-21T10:52:53.250Z,32.22
2023-03-21T10:55:26.812Z,38.75
2023-03-21T10:58:00.556Z,35.55
2023-03-21T11:00:37.802Z,30.85
2023-03-21T11:03:08.550Z,29.95
2023-03-21T11:05:43.272Z,33.83
2023-03-21T11:08:15.234Z,36.28
2023-03-21T11:11:06.375Z,43.15
2023-03-21T11:13:39.560Z,38.40
2023-03-21T11:16:12.446Z,34.20
2023-03-21T11:18:47.036Z,39.42
2023-03-21T11:21:18.520Z,39.83
2023-03-21T11:23:50.098Z,42.05
2023-03-21T11:26:39.750Z,43.45
2023-03-21T11:29:29.574Z,52.10
2023-03-21T11:32:00.921Z,49.67
2023-03-21T11:34:34.623Z,62.45
2023-03-21T11:37:05.958Z,64.65
2023-03-21T11:39:42.560Z,53.75
2023-03-21T11:42:30.896Z,58.75
2023-03-21T11:45:20.885Z,54.90
2023-03-21T11:47:52.909Z,59.50
2023-03-21T11:50:31.062Z,68.95
2023-03-21T11:53:21.257Z,67.80
2023-03-21T11:56:11.203Z,73.05
2023-03-21T11:59:02.845Z,59.63
2023-03-21T12:01:52.562Z,58.13
2023-03-21T12:04:31.018Z,56.15
2023-03-21T12:07:21.925Z,51.88
2023-03-21T12:10:11.892Z,44.67
2023-03-21T12:13:01.582Z,48.42
2023-03-21T12:15:53.709Z,48.22
2023-03-21T12:18:45.055Z,54.95
2023-03-21T12:21:35.184Z,53.28
2023-03-21T12:24:24.882Z,52.50
2023-03-21T12:27:09.206Z,58.38
2023-03-21T12:29:59.017Z,70.88
2023-03-21T12:32:50.868Z,69.68
2023-03-21T12:35:40.898Z,75.18
2023-03-21T12:38:18.236Z,67.00
2023-03-21T12:41:08.295Z,67.90
2023-03-21T12:43:57.290Z,56.50
2023-03-21T12:46:47.078Z,67.80
2023-03-21T12:49:37.485Z,54.85
2023-03-21T12:52:10.391Z,63.65
2023-03-21T12:55:00.090Z,64.57
2023-03-21T12:57:35.633Z,66.22
2023-03-21T13:00:25.784Z,70.93
2023-03-21T13:02:58.133Z,61.92
2023-03-21T13:05:33.927Z,63.22
2023-03-21T13:08:23.829Z,55.85
2023-03-21T13:10:54.936Z,60.42
2023-03-21T13:13:37.034Z,47.78
2023-03-21T13:16:27.055Z,49.65
2023-03-21T13:19:17.204Z,59.25
2023-03-21T13:21:53.970Z,58.38
2023-03-21T13:24:48.861Z,61.28
2023-03-21T13:27:31.086Z,57.72
2023-03-21T13:30:10.157Z,44.85
2023-03-21T13:32:45.290Z,42.58
2023-03-21T13:35:17.549Z,52.60
2023-03-21T13:37:55.274Z,60.78
2023-03-21T13:40:27.673Z,57.10
2023-03-21T13:43:00.861Z,60.70
2023-03-21T13:45:37.434Z,83.72
2023-03-21T13:48:09.174Z,97.95
2023-03-21T13:50:53.416Z,91.63
2023-03-21T13:53:25.442Z,79.47
2023-03-21T13:56:15.324Z,78.03
2023-03-21T13:59:03.339Z,72.07
2023-03-21T14:01:35.791Z,76.13
2023-03-21T14:04:15.132Z,63.05
2023-03-21T14:07:05.085Z,68.57
2023-03-21T14:09:54.672Z,74.57
2023-03-21T14:12:31.626Z,85.63
2023-03-21T14:15:13.956Z,75.00
2023-03-21T14:17:54.478Z,77.70
2023-03-21T14:20:29.597Z,65.22
2023-03-21T14:23:00.645Z,65.50
2023-03-21T14:25:40.980Z,53.50
2023-03-21T14:28:26.510Z,54.60
2023-03-21T14:31:02.124Z,47.60
2023-03-21T14:33:37.926Z,56.33
2023-03-21T14:36:10.517Z,85.10
2023-03-21T14:38:41.955Z,78.90
2023-03-21T14:41:25.939Z,73.85
2023-03-21T14:44:15.825Z,71.90
2023-03-21T14:46:46.641Z,53.92
2023-03-21T14:49:36.363Z,49.53
2023-03-21T14:52:08.739Z,50.80
2023-03-21T14:54:41.821Z,43.92
2023-03-21T14:57:14.294Z,44.80
2023-03-21T14:59:45.211Z,53.33
2023-03-21T15:02:23.338Z,42.30
2023-03-21T15:04:55.916Z,41.83
2023-03-21T15:07:27.675Z,44.92
2023-03-21T15:09:59.225Z,43.05
2023-03-21T15:12:29.732Z,62.97
2023-03-21T15:15:00.666Z,64.72
2023-03-21T15:17:32.144Z,75.00
2023-03-21T15:20:02.807Z,65.53
2023-03-21T15:22:39.052Z,59.45
2023-03-21T15:25:10.678Z,55.00
2023-03-21T15:27:43.170Z,48.92
2023-03-21T15:30:22.092Z,48.45
2023-03-21T15:32:53.111Z,40.83
2023-03-21T15:35:34.899Z,46.53
2023-03-21T15:38:06.745Z,41.92
2023-03-21T15:40:37.587Z,42.20
2023-03-21T15:43:09.010Z,43.92
2023-03-21T15:45:48.634Z,51.35
2023-03-21T15:48:19.880Z,43.72
2023-03-21T15:51:09.467Z,49.58
2023-03-21T15:53:40.386Z,40.22
2023-03-21T15:56:17.843Z,46.35
2023-03-21T15:58:50.729Z,39.95
2023-03-21T16:01:22.517Z,50.60
2023-03-21T16:04:01.779Z,44.42
2023-03-21T16:06:35.940Z,43.15
2023-03-21T16:09:11.879Z,45.63
2023-03-21T16:11:46.161Z,45.70
2023-03-21T16:14:16.797Z,42.55
2023-03-21T16:16:51.079Z,45.08
2023-03-21T16:19:21.407Z,47.08
2023-03-21T16:21:52.004Z,52.17
2023-03-21T16:24:22.473Z,48.65
2023-03-21T16:26:55.022Z,46.70
2023-03-21T16:29:25.305Z,49.58
2023-03-21T16:31:56.197Z,44.08
2023-03-21T16:34:26.448Z,45.45
2023-03-21T16:36:56.590Z,45.80
2023-03-21T16:39:28.224Z,47.05
2023-03-21T16:41:58.573Z,48.28
2023-03-21T16:44:29.570Z,49.95
2023-03-21T16:47:02.066Z,47.55
2023-03-21T16:49:33.208Z,51.20
2023-03-21T16:52:04.894Z,44.75
2023-03-21T16:54:35.731Z,43.95
2023-03-21T16:57:09.351Z,42.83
2023-03-21T16:59:40.774Z,47.53
2023-03-21T17:02:15.574Z,43.88
2023-03-21T17:04:46.260Z,40.97
2023-03-21T17:07:17.012Z,46.72
2023-03-21T17:09:48.436Z,52.20
2023-03-21T17:12:19.309Z,52.15
2023-03-21T17:14:49.896Z,50.58
2023-03-21T17:17:20.383Z,54.30
2023-03-21T17:19:50.949Z,49.47
2023-03-21T17:22:21.136Z,46.28
2023-03-21T17:24:51.940Z,48.50
2023-03-21T17:27:22.316Z,50.25
2023-03-21T17:29:55.249Z,54.70
2023-03-21T17:32:26.295Z,66.38
2023-03-21T17:34:57.088Z,60.85
2023-03-21T17:37:27.817Z,57.88
2023-03-21T17:39:58.034Z,57.25
2023-03-21T17:42:28.694Z,59.65
2023-03-21T17:44:58.991Z,56.22
2023-03-21T17:47:31.474Z,52.25
2023-03-21T17:50:01.650Z,57.17
2023-03-21T17:52:31.727Z,49.10
2023-03-21T17:55:02.547Z,46.95
2023-03-21T17:57:32.886Z,54.05
2023-03-21T18:00:03.497Z,50.55
2023-03-21T18:02:42.574Z,46.28
2023-03-21T18:05:13.422Z,47.38
2023-03-21T18:08:08.926Z,56.20
2023-03-21T18:10:34.671Z,63.78
2023-03-21T18:13:05.286Z,57.97
2023-03-21T18:15:37.951Z,49.15
2023-03-21T18:18:09.523Z,53.70
2023-03-21T18:20:51.771Z,56.22
2023-03-21T18:23:22.762Z,53.85
2023-03-21T18:25:54.060Z,59.20
2023-03-21T18:28:24.923Z,56.15
2023-03-21T18:31:16.863Z,60.88
2023-03-21T18:33:46.675Z,61.05
2023-03-21T18:36:24.684Z,62.00
2023-03-21T18:38:57.967Z,54.95
2023-03-21T18:41:28.348Z,52.47
2023-03-21T18:44:05.284Z,61.45
2023-03-21T18:46:48.695Z,53.55
2023-03-21T18:50:01.974Z,52.63
2023-03-21T18:52:10.904Z,52.78
2023-03-21T18:54:42.066Z,51.55
2023-03-21T18:57:35.055Z,53.53
2023-03-21T19:00:03.442Z,52.28
2023-03-21T19:02:33.635Z,58.53
2023-03-21T19:05:04.180Z,49.30
2023-03-21T19:07:34.525Z,53.35
2023-03-21T19:10:17.417Z,51.45
2023-03-21T19:12:50.046Z,58.13
2023-03-21T19:15:23.423Z,49.63
2023-03-21T19:20:46.642Z,59.95
2023-03-21T19:23:17.729Z,62.80
2023-03-21T19:25:49.436Z,61.72
2023-03-21T19:28:19.644Z,62.90
2023-03-21T19:30:50.963Z,62.72
2023-03-21T19:33:22.576Z,65.40
2023-03-21T19:36:09.194Z,63.67
2023-03-21T19:38:41.527Z,64.53
2023-03-21T19:41:11.742Z,57.83
2023-03-21T19:43:52.818Z,56.65
2023-03-21T19:46:26.141Z,50.78
2023-03-21T19:48:57.206Z,54.38
2023-03-21T19:51:30.671Z,55.50
2023-03-21T19:54:01.983Z,53.75
2023-03-21T19:56:32.248Z,56.35
2023-03-21T19:59:04.336Z,54.97
2023-03-21T20:01:34.817Z,56.55
2023-03-21T20:04:05.016Z,55.13
2023-03-21T20:06:35.727Z,54.38
2023-03-21T20:09:47.249Z,54.35
2023-03-21T20:11:59.206Z,55.40
2023-03-21T20:14:29.512Z,61.95
2023-03-21T20:17:00.351Z,68.15
2023-03-21T20:19:30.923Z,61.38
2023-03-21T20:22:02.844Z,61.63
2023-03-21T20:24:33.579Z,62.03
2023-03-21T20:27:04.584Z,63.10
2023-03-21T20:32:25.278Z,54.35
2023-03-21T20:35:07.635Z,54.90
2023-03-21T20:37:52.565Z,53.50
2023-03-21T20:40:24.232Z,57.53
2023-03-21T20:42:59.963Z,63.58
2023-03-21T20:45:32.315Z,54.20
2023-03-21T20:48:02.239Z,59.60
2023-03-21T20:50:34.019Z,55.83
2023-03-21T20:53:07.482Z,54.20
2023-03-21T20:55:38.798Z,55.40
2023-03-21T20:58:30.035Z,61.38
2023-03-21T21:01:05.289Z,54.08
2023-03-21T21:03:42.655Z,58.05
2023-03-21T21:06:21.580Z,59.28
2023-03-21T21:08:52.129Z,55.72
2023-03-21T21:14:12.395Z,55.40
2023-03-21T21:16:42.653Z,57.10
2023-03-21T21:19:13.501Z,55.90
2023-03-21T21:21:44.248Z,57.17
2023-03-21T21:24:14.927Z,62.00
2023-03-21T21:26:47.624Z,59.85
2023-03-21T21:29:18.789Z,58.33
2023-03-21T21:31:51.414Z,60.90
2023-03-21T21:34:23.081Z,56.97
2023-03-21T21:36:53.794Z,57.97
2023-03-21T21:39:26.353Z,66.10
2023-03-21T21:41:56.804Z,59.72
2023-03-21T21:44:26.963Z,62.38
2023-03-21T21:46:58.946Z,72.05
2023-03-21T21:49:29.714Z,68.07
2023-03-21T21:52:01.319Z,71.35
2023-03-21T21:54:31.777Z,66.82
2023-03-21T21:57:01.937Z,63.53
2023-03-21T21:59:32.141Z,58.45
2023-03-21T22:02:05.017Z,62.78
2023-03-21T22:04:36.296Z,59.63
2023-03-21T22:07:07.551Z,59.47
2023-03-21T22:09:37.951Z,63.45
2023-03-21T22:12:08.297Z,62.83
2023-03-21T22:14:38.667Z,63.25
2023-03-21T22:17:09.344Z,63.40
2023-03-21T22:19:40.317Z,66.38
2023-03-21T22:22:10.829Z,63.75
2023-03-21T22:24:41.024Z,62.30
2023-03-21T22:27:11.168Z,64.78
2023-03-21T22:29:41.455Z,61.70
2023-03-21T22:32:11.713Z,59.53
2023-03-21T22:34:41.940Z,60.30
2023-03-21T22:37:12.625Z,59.60
2023-03-21T22:39:42.858Z,60.22
2023-03-21T22:42:13.026Z,64.43
2023-03-21T22:44:43.405Z,65.35
2023-03-21T22:47:13.658Z,68.63
2023-03-21T22:49:47.833Z,68.70
2023-03-21T22:52:17.776Z,77.82
2023-03-21T22:54:49.329Z,70.25
2023-03-21T22:57:21.638Z,76.50
2023-03-21T22:59:51.951Z,77.97
2023-03-21T23:02:22.284Z,72.47
2023-03-21T23:04:52.743Z,63.80
2023-03-21T23:07:22.861Z,69.22
2023-03-21T23:09:53.470Z,75.60
2023-03-21T23:12:23.734Z,73.32
2023-03-21T23:14:53.856Z,78.28
2023-03-21T23:17:24.018Z,74.22
2023-03-21T23:19:54.947Z,70.78
2023-03-21T23:22:25.489Z,72.60
2023-03-21T23:24:55.691Z,72.50
2023-03-21T23:27:26.172Z,72.22
2023-03-21T23:29:58.736Z,67.63
2023-03-21T23:32:28.924Z,66.45
2023-03-21T23:34:59.389Z,65.80
2023-03-21T23:37:31.781Z,66.03
2023-03-21T23:40:02.074Z,66.40
2023-03-21T23:42:32.657Z,67.03
2023-03-21T23:45:03.018Z,61.47
2023-03-21T23:47:33.156Z,65.38
2023-03-21T23:50:03.520Z,64.03
2023-03-21T23:52:33.421Z,63.58
2023-03-21T23:55:03.544Z,69.50
2023-03-21T23:57:34.025Z,61.33
